createdAt,value
2023-07-05T04:01:50.745Z,1.20
2023-07-05T04:04:17.943Z,1.20
2023-07-05T04:06:45.089Z,0.93
2023-07-05T04:09:12.212Z,0.95
2023-07-05T04:11:39.356Z,1.30
2023-07-05T04:14:06.668Z,1.20
2023-07-05T04:16:33.841Z,1.17
2023-07-05T04:19:01.053Z,1.52
2023-07-05T04:21:28.621Z,1.30
2023-07-05T04:23:56.193Z,1.08
2023-07-05T04:26:25.471Z,1.58
2023-07-05T04:28:52.613Z,0.80
2023-07-05T04:31:21.422Z,0.80
2023-07-05T04:33:48.913Z,1.42
2023-07-05T04:36:27.584Z,1.80
2023-07-05T04:38:57.071Z,1.23
2023-07-05T04:41:24.330Z,1.52
2023-07-05T04:43:52.826Z,1.00
2023-07-05T04:46:20.592Z,1.25
2023-07-05T04:48:47.873Z,1.30
2023-07-05T04:51:15.132Z,0.70
2023-07-05T04:53:42.287Z,0.90
2023-07-05T04:56:12.711Z,1.10
2023-07-05T04:58:40.055Z,1.30
2023-07-05T05:01:09.237Z,1.10
2023-07-05T05:03:36.719Z,0.82
2023-07-05T05:06:04.139Z,2.00
2023-07-05T05:08:31.662Z,1.70
2023-07-05T05:11:00.354Z,1.00
2023-07-05T05:13:28.826Z,0.93
2023-07-05T05:15:57.118Z,1.00
2023-07-05T05:18:25.153Z,0.93
2023-07-05T05:20:52.764Z,0.88
2023-07-05T05:23:20.103Z,1.70
2023-07-05T05:25:48.293Z,1.48
2023-07-05T05:28:16.035Z,1.15
2023-07-05T05:30:46.764Z,1.40
2023-07-05T05:33:15.214Z,1.13
2023-07-05T05:35:47.692Z,1.02
2023-07-05T05:38:15.139Z,0.80
2023-07-05T05:40:42.355Z,1.10
2023-07-05T05:43:09.788Z,1.77
2023-07-05T05:45:37.157Z,1.80
2023-07-05T05:48:04.531Z,1.00
2023-07-05T05:50:32.209Z,1.10
2023-07-05T05:52:59.677Z,2.80
2023-07-05T05:55:27.196Z,0.80
2023-07-05T05:57:54.480Z,1.73
2023-07-05T06:00:21.699Z,0.75
2023-07-05T06:02:48.894Z,0.75
2023-07-05T06:05:16.746Z,0.82
2023-07-05T06:07:44.131Z,1.38
2023-07-05T06:10:11.640Z,0.95
2023-07-05T06:12:43.185Z,1.02
2023-07-05T06:15:14.651Z,1.10
2023-07-05T06:17:42.052Z,1.02
2023-07-05T06:20:12.660Z,1.08
2023-07-05T06:22:43.117Z,0.98
2023-07-05T06:25:14.015Z,0.85
2023-07-05T06:27:41.350Z,2.30
2023-07-05T06:32:36.586Z,1.20
2023-07-05T06:35:04.183Z,1.35
2023-07-05T06:37:31.325Z,0.70
2023-07-05T06:39:58.602Z,0.77
2023-07-05T06:42:27.544Z,0.95
2023-07-05T06:44:56.280Z,1.23
2023-07-05T06:47:24.140Z,1.00
2023-07-05T06:49:51.385Z,1.00
2023-07-05T06:52:18.569Z,1.23
2023-07-05T06:54:45.776Z,0.82
2023-07-05T06:57:13.050Z,0.90
2023-07-05T06:59:40.286Z,1.00
2023-07-05T07:02:07.450Z,1.13
2023-07-05T07:04:34.747Z,0.90
2023-07-05T07:07:01.896Z,0.55
2023-07-05T07:09:29.111Z,0.90
2023-07-05T07:11:56.265Z,0.80
2023-07-05T07:14:23.439Z,0.70
2023-07-05T07:16:50.637Z,1.40
2023-07-05T07:19:19.038Z,0.98
2023-07-05T07:21:46.441Z,2.22
2023-07-05T07:24:13.682Z,0.93
2023-07-05T07:26:40.979Z,0.95
2023-07-05T07:29:09.716Z,1.05
2023-07-05T07:31:36.938Z,1.02
2023-07-05T07:34:06.140Z,1.00
2023-07-05T07:36:34.200Z,0.80
2023-07-05T07:39:01.389Z,0.77
2023-07-05T07:41:35.412Z,0.90
2023-07-05T07:44:10.386Z,0.75
2023-07-05T07:46:38.728Z,1.40
2023-07-05T07:49:06.863Z,0.80
2023-07-05T07:51:38.901Z,0.80
2023-07-05T07:54:13.621Z,0.77
2023-07-05T07:56:42.236Z,1.10
2023-07-05T07:59:09.683Z,1.50
2023-07-05T08:01:39.313Z,1.27
2023-07-05T08:04:09.266Z,0.90
2023-07-05T08:06:38.449Z,0.60
2023-07-05T08:09:06.776Z,0.90
2023-07-05T08:11:34.464Z,0.80
2023-07-05T08:14:01.952Z,1.02
2023-07-05T08:16:29.201Z,0.77
2023-07-05T08:18:56.374Z,0.70
2023-07-05T08:21:23.520Z,0.75
2023-07-05T08:23:50.799Z,0.75
2023-07-05T08:26:18.799Z,0.85
2023-07-05T08:28:46.790Z,1.15
2023-07-05T08:31:14.077Z,0.95
2023-07-05T08:33:42.265Z,1.42
2023-07-05T08:36:12.512Z,0.90
2023-07-05T08:38:41.708Z,0.70
2023-07-05T08:41:17.863Z,0.80
2023-07-05T08:43:48.539Z,0.95
2023-07-05T08:46:16.873Z,1.00
2023-07-05T08:48:45.871Z,1.10
2023-07-05T08:51:15.449Z,1.73
2023-07-05T08:54:03.617Z,1.02
2023-07-05T08:56:36.754Z,1.00
2023-07-05T08:59:22.174Z,0.93
2023-07-05T09:01:51.976Z,0.80
2023-07-05T09:04:23.444Z,2.05
2023-07-05T09:07:29.513Z,1.10
2023-07-05T09:10:13.929Z,0.80
2023-07-05T09:12:55.145Z,0.93
2023-07-05T09:15:31.296Z,1.00
2023-07-05T09:18:01.891Z,0.80
2023-07-05T09:20:36.916Z,0.70
2023-07-05T09:23:06.776Z,0.88
2023-07-05T09:25:58.327Z,0.77
2023-07-05T09:28:43.711Z,1.00
2023-07-05T09:31:15.135Z,0.80
2023-07-05T09:33:50.758Z,0.77
2023-07-05T09:36:26.847Z,1.10
2023-07-05T09:43:49.347Z,0.90
2023-07-05T09:46:22.225Z,1.13
2023-07-05T09:48:50.543Z,0.77
2023-07-05T10:52:53.294Z,0.88
2023-07-05T10:55:22.165Z,0.70
2023-07-05T10:57:55.149Z,1.27
2023-07-05T11:00:31.114Z,1.17
2023-07-05T11:03:12.989Z,1.00
2023-07-05T11:05:42.706Z,1.10
2023-07-05T11:08:17.741Z,1.05
2023-07-05T11:10:45.452Z,0.90
2023-07-05T11:13:21.855Z,1.45
2023-07-05T11:15:49.362Z,1.02
2023-07-05T11:18:18.184Z,0.70
2023-07-05T11:20:45.555Z,1.08
2023-07-05T11:23:14.869Z,0.90
2023-07-05T11:25:54.587Z,1.15
2023-07-05T11:28:38.151Z,1.48
2023-07-05T11:31:06.280Z,1.02
2023-07-05T11:33:34.914Z,1.17
2023-07-05T11:36:09.864Z,0.63
2023-07-05T11:38:37.411Z,0.80
2023-07-05T11:41:27.673Z,1.45
2023-07-05T11:44:05.716Z,0.77
2023-07-05T11:46:43.282Z,0.70
2023-07-05T11:49:24.330Z,1.00
2023-07-05T11:51:59.893Z,1.10
2023-07-05T11:54:36.661Z,0.75
2023-07-05T11:57:06.038Z,0.75
2023-07-05T11:59:35.061Z,0.90
2023-07-05T12:02:08.621Z,1.00
2023-07-05T12:04:38.650Z,0.95
2023-07-05T12:07:06.054Z,0.70
2023-07-05T12:09:37.569Z,0.82
2023-07-05T12:12:04.940Z,0.95
2023-07-05T12:14:32.082Z,1.65
2023-07-05T12:16:59.791Z,0.90
2023-07-05T12:19:31.328Z,0.93
2023-07-05T12:22:03.877Z,1.13
2023-07-05T12:24:38.935Z,0.90
2023-07-05T12:27:06.378Z,0.60
2023-07-05T12:29:33.782Z,1.10
2023-07-05T12:32:09.022Z,1.15
2023-07-05T12:34:36.360Z,0.80
2023-07-05T12:37:03.544Z,1.13
2023-07-05T12:39:30.760Z,1.00
2023-07-05T12:42:04.089Z,1.00
2023-07-05T12:44:34.404Z,1.00
2023-07-05T12:47:14.669Z,0.80
2023-07-05T12:49:42.224Z,1.00
2023-07-05T12:52:22.636Z,1.20
2023-07-05T12:54:49.970Z,0.77
2023-07-05T12:57:22.887Z,1.23
2023-07-05T13:00:04.723Z,0.90
2023-07-05T13:02:33.680Z,0.93
2023-07-05T13:05:01.982Z,1.05
2023-07-05T13:07:29.634Z,0.82
2023-07-05T13:10:07.500Z,0.90
2023-07-05T13:12:45.252Z,1.00
2023-07-05T13:15:12.439Z,0.85
2023-07-05T13:17:39.834Z,1.13
2023-07-05T13:20:07.040Z,0.85
2023-07-05T13:22:38.636Z,1.17
2023-07-05T13:25:06.583Z,2.13
2023-07-05T13:27:36.393Z,0.80
2023-07-05T13:30:19.634Z,1.15
2023-07-05T13:32:50.997Z,1.30
2023-07-05T13:35:18.405Z,1.73
2023-07-05T13:37:46.026Z,1.45
2023-07-05T13:40:19.816Z,0.80
2023-07-05T13:42:48.885Z,1.00
2023-07-05T13:45:21.027Z,0.98
2023-07-05T13:47:49.098Z,1.20
2023-07-05T13:50:16.318Z,1.15
2023-07-05T13:52:44.097Z,1.48
2023-07-05T13:55:17.026Z,1.10
2023-07-05T13:57:54.196Z,1.52
2023-07-05T14:00:21.615Z,1.10
2023-07-05T14:02:51.056Z,1.02
2023-07-05T14:05:18.993Z,0.70
2023-07-05T14:07:46.366Z,1.17
2023-07-05T14:10:15.300Z,0.95
2023-07-05T14:12:42.568Z,1.52
2023-07-05T14:15:22.231Z,1.00
2023-07-05T14:17:49.550Z,0.75
2023-07-05T14:20:16.797Z,1.10
2023-07-05T14:22:44.063Z,1.10
2023-07-05T14:25:16.145Z,1.08
2023-07-05T14:27:43.688Z,1.10
2023-07-05T14:30:11.054Z,0.88
2023-07-05T14:32:38.241Z,0.77
2023-07-05T14:35:13.302Z,0.90
2023-07-05T14:37:41.290Z,1.17
2023-07-05T14:40:08.913Z,1.00
2023-07-05T14:42:36.013Z,0.93
2023-07-05T14:45:03.217Z,0.90
2023-07-05T14:47:30.526Z,0.70
2023-07-05T14:49:57.759Z,1.23
2023-07-05T14:52:25.125Z,1.30
2023-07-05T14:54:52.558Z,1.02
2023-07-05T14:57:20.032Z,0.82
2023-07-05T14:59:47.185Z,0.90
2023-07-05T15:02:22.540Z,1.08
2023-07-05T15:04:50.064Z,1.48
2023-07-05T15:07:19.050Z,0.90
2023-07-05T15:09:46.826Z,1.20
2023-07-05T15:12:14.424Z,1.10
2023-07-05T15:14:41.732Z,1.10
2023-07-05T15:17:08.867Z,0.80
2023-07-05T15:19:36.083Z,1.00
2023-07-05T15:22:04.904Z,0.73
2023-07-05T15:24:34.348Z,0.88
2023-07-05T15:27:01.928Z,0.98
2023-07-05T15:29:29.270Z,1.00
2023-07-05T15:31:56.418Z,0.73
2023-07-05T15:34:23.558Z,0.85
2023-07-05T15:36:51.033Z,0.88
2023-07-05T15:39:19.772Z,1.20
2023-07-05T15:41:46.922Z,1.20
2023-07-05T15:44:14.546Z,0.90
2023-07-05T15:46:41.797Z,0.98
2023-07-05T15:49:09.026Z,1.27
2023-07-05T15:51:36.256Z,1.17
2023-07-05T15:54:03.407Z,1.20
2023-07-05T15:56:30.552Z,0.90
2023-07-05T15:59:03.377Z,0.93
2023-07-05T16:01:33.090Z,1.33
2023-07-05T16:04:00.797Z,0.95
2023-07-05T16:06:28.005Z,0.90
2023-07-05T16:08:55.192Z,1.08
2023-07-05T16:11:23.897Z,0.90
2023-07-05T16:13:51.553Z,1.10
2023-07-05T16:16:18.918Z,1.10
2023-07-05T16:18:46.172Z,1.00
2023-07-05T16:21:13.608Z,0.75
2023-07-05T16:23:41.262Z,0.73
2023-07-05T16:26:08.617Z,1.05
2023-07-05T16:28:36.048Z,0.88
2023-07-05T16:31:04.650Z,0.95
2023-07-05T16:33:31.961Z,0.90
2023-07-05T16:36:01.394Z,1.20
2023-07-05T16:38:28.858Z,1.05
2023-07-05T16:40:59.953Z,0.90
2023-07-05T16:43:28.047Z,0.85
2023-07-05T16:45:59.234Z,0.77
2023-07-05T16:48:26.834Z,0.88
2023-07-05T16:50:54.483Z,1.10
2023-07-05T16:53:22.618Z,1.20
2023-07-05T16:55:55.273Z,0.98
2023-07-05T16:58:22.849Z,1.20
2023-07-05T17:00:57.961Z,0.85
2023-07-05T17:03:26.365Z,1.70
2023-07-05T17:05:55.765Z,1.23
2023-07-05T17:08:22.894Z,1.02
2023-07-05T17:10:50.039Z,1.02
2023-07-05T17:13:17.580Z,1.10
2023-07-05T17:15:45.088Z,1.10
2023-07-05T17:18:12.220Z,1.42
2023-07-05T17:20:39.664Z,1.42
2023-07-05T17:23:07.076Z,1.58
2023-07-05T17:25:35.045Z,1.38
2023-07-05T17:28:05.012Z,1.40
2023-07-05T17:30:33.609Z,1.00
2023-07-05T17:33:04.454Z,1.33
2023-07-05T17:35:31.675Z,1.10
2023-07-05T17:37:59.015Z,1.70
2023-07-05T17:40:26.200Z,1.27
2023-07-05T17:42:53.345Z,2.20
2023-07-05T17:45:20.646Z,1.63
2023-07-05T17:47:47.836Z,1.17
2023-07-05T17:50:15.114Z,1.17
2023-07-05T17:52:42.710Z,1.42
2023-07-05T17:55:10.038Z,1.20
2023-07-05T17:57:37.181Z,1.27
2023-07-05T18:00:04.849Z,1.55
2023-07-05T18:02:32.133Z,1.50
2023-07-05T18:04:59.442Z,1.52
2023-07-05T18:07:26.794Z,1.42
2023-07-05T18:09:54.277Z,1.73
2023-07-05T18:12:21.424Z,1.60
2023-07-05T18:14:48.997Z,1.88
2023-07-05T18:17:16.179Z,2.40
2023-07-05T18:19:43.662Z,1.55
2023-07-05T18:22:10.935Z,2.03
2023-07-05T18:24:38.365Z,2.60
2023-07-05T18:27:05.593Z,2.50
2023-07-05T18:29:32.713Z,4.97
2023-07-05T18:31:59.888Z,3.70
2023-07-05T18:34:27.069Z,2.47
2023-07-05T18:36:54.254Z,3.15
2023-07-05T18:39:21.434Z,1.70
2023-07-05T18:41:50.378Z,2.97
2023-07-05T18:44:17.807Z,4.13
2023-07-05T18:46:45.102Z,4.50
2023-07-05T18:49:14.437Z,3.90
2023-07-05T18:51:41.584Z,4.40
2023-07-05T18:54:11.400Z,4.13
2023-07-05T18:56:38.775Z,2.50
2023-07-05T18:59:08.353Z,2.50
2023-07-05T19:13:55.607Z,1.95
2023-07-05T19:16:24.208Z,2.03
2023-07-05T19:18:51.475Z,2.55
2023-07-05T19:21:19.044Z,2.33
2023-07-05T19:23:49.979Z,3.17
2023-07-05T19:26:19.067Z,3.00
2023-07-05T19:28:47.662Z,2.70
2023-07-05T19:31:17.245Z,3.90
2023-07-05T19:36:12.661Z,2.80
2023-07-05T19:38:40.251Z,3.40
